sensor_id;sensor_type;location;lat;lon;timestamp;P1;durP1;ratioP1;P2;durP2;ratioP2
75716;SDS011;64333;50.138;14.332;2023-12-20T00:01:14;4.43;;;2.87;;
75716;SDS011;64333;50.138;14.332;2023-12-20T00:03:39;4.20;;;2.90;;
75716;SDS011;64333;50.138;14.332;2023-12-20T00:06:04;3.20;;;2.60;;
75716;SDS011;64333;50.138;14.332;2023-12-20T00:08:30;4.23;;;2.93;;
75716;SDS011;64333;50.138;14.332;2023-12-20T00:10:55;3.95;;;2.50;;
75716;SDS011;64333;50.138;14.332;2023-12-20T00:13:20;4.37;;;2.70;;
75716;SDS011;64333;50.138;14.332;2023-12-20T00:15:45;4.50;;;2.67;;
75716;SDS011;64333;50.138;14.332;2023-12-20T00:18:11;4.80;;;2.90;;
75716;SDS011;64333;50.138;14.332;2023-12-20T00:20:36;4.10;;;2.83;;
75716;SDS011;64333;50.138;14.332;2023-12-20T00:23:01;4.97;;;3.23;;
75716;SDS011;64333;50.138;14.332;2023-12-20T00:25:27;4.97;;;3.05;;
75716;SDS011;64333;50.138;14.332;2023-12-20T00:27:52;4.00;;;3.17;;
75716;SDS011;64333;50.138;14.332;2023-12-20T00:30:17;6.90;;;4.10;;
75716;SDS011;64333;50.138;14.332;2023-12-20T00:32:43;5.85;;;3.53;;
75716;SDS011;64333;50.138;14.332;2023-12-20T00:35:11;4.18;;;3.35;;
75716;SDS011;64333;50.138;14.332;2023-12-20T00:37:37;6.72;;;3.50;;
75716;SDS011;64333;50.138;14.332;2023-12-20T00:40:02;7.30;;;4.67;;
75716;SDS011;64333;50.138;14.332;2023-12-20T00:42:27;6.88;;;4.10;;
75716;SDS011;64333;50.138;14.332;2023-12-20T00:44:52;5.40;;;4.03;;
75716;SDS011;64333;50.138;14.332;2023-12-20T00:47:18;7.13;;;4.60;;
75716;SDS011;64333;50.138;14.332;2023-12-20T00:49:43;5.80;;;3.80;;
75716;SDS011;64333;50.138;14.332;2023-12-20T00:52:08;6.40;;;3.67;;
75716;SDS011;64333;50.138;14.332;2023-12-20T00:54:33;8.17;;;5.57;;
75716;SDS011;64333;50.138;14.332;2023-12-20T00:56:59;6.45;;;3.83;;
75716;SDS011;64333;50.138;14.332;2023-12-20T00:59:24;6.07;;;4.60;;
75716;SDS011;64333;50.138;14.332;2023-12-20T01:01:49;6.67;;;4.47;;
75716;SDS011;64333;50.138;14.332;2023-12-20T01:04:16;7.13;;;4.65;;
75716;SDS011;64333;50.138;14.332;2023-12-20T01:06:41;8.93;;;5.00;;
75716;SDS011;64333;50.138;14.332;2023-12-20T01:09:06;9.77;;;4.73;;
75716;SDS011;64333;50.138;14.332;2023-12-20T01:11:31;8.43;;;4.40;;
75716;SDS011;64333;50.138;14.332;2023-12-20T01:13:57;8.63;;;4.60;;
75716;SDS011;64333;50.138;14.332;2023-12-20T01:16:22;5.70;;;4.10;;
75716;SDS011;64333;50.138;14.332;2023-12-20T01:18:47;6.77;;;3.80;;
75716;SDS011;64333;50.138;14.332;2023-12-20T01:21:12;5.40;;;4.07;;
75716;SDS011;64333;50.138;14.332;2023-12-20T01:23:37;7.23;;;4.27;;
75716;SDS011;64333;50.138;14.332;2023-12-20T01:26:03;6.10;;;3.73;;
75716;SDS011;64333;50.138;14.332;2023-12-20T01:28:29;6.75;;;3.75;;
75716;SDS011;64333;50.138;14.332;2023-12-20T01:30:54;6.60;;;3.97;;
75716;SDS011;64333;50.138;14.332;2023-12-20T01:33:20;7.35;;;4.05;;
75716;SDS011;64333;50.138;14.332;2023-12-20T01:35:45;8.00;;;4.70;;
75716;SDS011;64333;50.138;14.332;2023-12-20T01:38:10;7.33;;;4.20;;
75716;SDS011;64333;50.138;14.332;2023-12-20T01:40:35;6.90;;;4.73;;
75716;SDS011;64333;50.138;14.332;2023-12-20T01:43:07;7.37;;;4.40;;
75716;SDS011;64333;50.138;14.332;2023-12-20T01:45:33;6.05;;;3.97;;
75716;SDS011;64333;50.138;14.332;2023-12-20T01:47:58;6.68;;;4.82;;
75716;SDS011;64333;50.138;14.332;2023-12-20T01:50:24;5.80;;;3.75;;
75716;SDS011;64333;50.138;14.332;2023-12-20T01:52:49;6.82;;;4.07;;
75716;SDS011;64333;50.138;14.332;2023-12-20T01:55:17;4.68;;;3.88;;
75716;SDS011;64333;50.138;14.332;2023-12-20T01:57:42;5.97;;;4.15;;
75716;SDS011;64333;50.138;14.332;2023-12-20T02:00:08;4.80;;;3.92;;
75716;SDS011;64333;50.138;14.332;2023-12-20T02:02:35;6.15;;;3.97;;
75716;SDS011;64333;50.138;14.332;2023-12-20T02:05:01;6.63;;;4.18;;
75716;SDS011;64333;50.138;14.332;2023-12-20T02:07:27;5.32;;;3.85;;
75716;SDS011;64333;50.138;14.332;2023-12-20T02:09:52;6.93;;;4.45;;
75716;SDS011;64333;50.138;14.332;2023-12-20T02:12:18;8.50;;;4.72;;
75716;SDS011;64333;50.138;14.332;2023-12-20T02:14:43;5.95;;;3.63;;
75716;SDS011;64333;50.138;14.332;2023-12-20T02:17:08;7.10;;;4.57;;
75716;SDS011;64333;50.138;14.332;2023-12-20T02:19:34;5.47;;;3.73;;
75716;SDS011;64333;50.138;14.332;2023-12-20T02:22:11;5.87;;;3.73;;
75716;SDS011;64333;50.138;14.332;2023-12-20T02:24:37;8.60;;;4.30;;
75716;SDS011;64333;50.138;14.332;2023-12-20T02:27:02;6.72;;;3.92;;
75716;SDS011;64333;50.138;14.332;2023-12-20T02:29:27;6.45;;;3.85;;
75716;SDS011;64333;50.138;14.332;2023-12-20T02:31:53;6.28;;;4.13;;
75716;SDS011;64333;50.138;14.332;2023-12-20T02:34:18;5.93;;;3.97;;
75716;SDS011;64333;50.138;14.332;2023-12-20T02:36:43;6.37;;;4.30;;
75716;SDS011;64333;50.138;14.332;2023-12-20T02:39:08;7.23;;;3.73;;
75716;SDS011;64333;50.138;14.332;2023-12-20T02:41:33;9.30;;;4.60;;
75716;SDS011;64333;50.138;14.332;2023-12-20T02:43:59;7.07;;;4.30;;
75716;SDS011;64333;50.138;14.332;2023-12-20T02:46:24;6.50;;;3.67;;
75716;SDS011;64333;50.138;14.332;2023-12-20T02:48:49;8.33;;;4.30;;
75716;SDS011;64333;50.138;14.332;2023-12-20T02:51:14;6.10;;;4.15;;
75716;SDS011;64333;50.138;14.332;2023-12-20T02:53:40;7.50;;;3.80;;
75716;SDS011;64333;50.138;14.332;2023-12-20T02:56:05;7.57;;;4.57;;
75716;SDS011;64333;50.138;14.332;2023-12-20T02:58:30;7.10;;;4.28;;
75716;SDS011;64333;50.138;14.332;2023-12-20T03:00:56;7.33;;;4.63;;
75716;SDS011;64333;50.138;14.332;2023-12-20T03:03:21;9.23;;;5.17;;
75716;SDS011;64333;50.138;14.332;2023-12-20T03:05:46;8.37;;;5.67;;
75716;SDS011;64333;50.138;14.332;2023-12-20T03:08:11;8.23;;;4.70;;
75716;SDS011;64333;50.138;14.332;2023-12-20T03:10:37;7.00;;;4.25;;
75716;SDS011;64333;50.138;14.332;2023-12-20T03:13:02;7.77;;;5.20;;
75716;SDS011;64333;50.138;14.332;2023-12-20T03:15:27;10.67;;;5.20;;
75716;SDS011;64333;50.138;14.332;2023-12-20T03:17:52;8.73;;;4.78;;
75716;SDS011;64333;50.138;14.332;2023-12-20T03:20:18;6.93;;;4.33;;
75716;SDS011;64333;50.138;14.332;2023-12-20T03:22:43;9.07;;;4.87;;
75716;SDS011;64333;50.138;14.332;2023-12-20T03:25:08;6.27;;;4.37;;
75716;SDS011;64333;50.138;14.332;2023-12-20T03:27:36;6.50;;;4.10;;
75716;SDS011;64333;50.138;14.332;2023-12-20T03:30:02;7.95;;;4.70;;
75716;SDS011;64333;50.138;14.332;2023-12-20T03:32:27;9.25;;;4.95;;
75716;SDS011;64333;50.138;14.332;2023-12-20T03:34:52;7.97;;;4.60;;
75716;SDS011;64333;50.138;14.332;2023-12-20T03:37:17;6.97;;;4.20;;
75716;SDS011;64333;50.138;14.332;2023-12-20T03:39:42;8.80;;;4.33;;
75716;SDS011;64333;50.138;14.332;2023-12-20T03:42:08;9.17;;;4.53;;
75716;SDS011;64333;50.138;14.332;2023-12-20T03:44:33;9.00;;;5.03;;
75716;SDS011;64333;50.138;14.332;2023-12-20T03:46:58;6.10;;;4.03;;
75716;SDS011;64333;50.138;14.332;2023-12-20T03:49:23;9.37;;;5.30;;
75716;SDS011;64333;50.138;14.332;2023-12-20T03:51:49;8.30;;;5.00;;
75716;SDS011;64333;50.138;14.332;2023-12-20T03:54:14;8.97;;;4.93;;
75716;SDS011;64333;50.138;14.332;2023-12-20T03:56:39;7.43;;;4.10;;
75716;SDS011;64333;50.138;14.332;2023-12-20T03:59:04;8.13;;;4.70;;
75716;SDS011;64333;50.138;14.332;2023-12-20T04:01:29;6.60;;;3.77;;
75716;SDS011;64333;50.138;14.332;2023-12-20T04:03:55;7.07;;;4.10;;
75716;SDS011;64333;50.138;14.332;2023-12-20T04:06:20;7.30;;;4.70;;
75716;SDS011;64333;50.138;14.332;2023-12-20T04:08:45;6.93;;;4.00;;
75716;SDS011;64333;50.138;14.332;2023-12-20T04:11:10;6.93;;;4.67;;
75716;SDS011;64333;50.138;14.332;2023-12-20T04:13:36;8.53;;;4.53;;
75716;SDS011;64333;50.138;14.332;2023-12-20T04:16:01;5.90;;;3.60;;
75716;SDS011;64333;50.138;14.332;2023-12-20T04:18:26;5.83;;;3.53;;
75716;SDS011;64333;50.138;14.332;2023-12-20T04:20:53;7.20;;;4.15;;
75716;SDS011;64333;50.138;14.332;2023-12-20T04:23:18;4.97;;;3.10;;
75716;SDS011;64333;50.138;14.332;2023-12-20T04:25:44;5.32;;;3.67;;
75716;SDS011;64333;50.138;14.332;2023-12-20T04:28:09;6.57;;;3.83;;
75716;SDS011;64333;50.138;14.332;2023-12-20T04:30:35;6.43;;;3.70;;
75716;SDS011;64333;50.138;14.332;2023-12-20T04:33:00;8.27;;;4.22;;
75716;SDS011;64333;50.138;14.332;2023-12-20T04:35:25;5.75;;;3.40;;
75716;SDS011;64333;50.138;14.332;2023-12-20T04:37:51;8.98;;;4.15;;
75716;SDS011;64333;50.138;14.332;2023-12-20T04:40:16;6.70;;;3.90;;
75716;SDS011;64333;50.138;14.332;2023-12-20T04:42:41;7.93;;;4.40;;
75716;SDS011;64333;50.138;14.332;2023-12-20T04:45:07;7.50;;;3.93;;
75716;SDS011;64333;50.138;14.332;2023-12-20T04:47:32;7.72;;;4.43;;
75716;SDS011;64333;50.138;14.332;2023-12-20T04:49:57;9.13;;;5.00;;
75716;SDS011;64333;50.138;14.332;2023-12-20T04:52:22;7.73;;;4.33;;
75716;SDS011;64333;50.138;14.332;2023-12-20T04:54:48;7.73;;;4.87;;
75716;SDS011;64333;50.138;14.332;2023-12-20T04:57:13;9.13;;;4.50;;
75716;SDS011;64333;50.138;14.332;2023-12-20T04:59:38;9.07;;;4.40;;
75716;SDS011;64333;50.138;14.332;2023-12-20T05:02:03;7.70;;;4.20;;
75716;SDS011;64333;50.138;14.332;2023-12-20T05:04:29;5.47;;;3.40;;
75716;SDS011;64333;50.138;14.332;2023-12-20T05:06:54;10.60;;;5.63;;
75716;SDS011;64333;50.138;14.332;2023-12-20T05:09:19;6.70;;;4.33;;
75716;SDS011;64333;50.138;14.332;2023-12-20T05:11:44;7.80;;;4.43;;
75716;SDS011;64333;50.138;14.332;2023-12-20T05:14:10;8.80;;;4.68;;
75716;SDS011;64333;50.138;14.332;2023-12-20T05:16:35;8.83;;;4.40;;
75716;SDS011;64333;50.138;14.332;2023-12-20T05:19:00;9.83;;;4.83;;
75716;SDS011;64333;50.138;14.332;2023-12-20T05:21:27;8.18;;;5.05;;
75716;SDS011;64333;50.138;14.332;2023-12-20T05:23:52;7.67;;;4.63;;
75716;SDS011;64333;50.138;14.332;2023-12-20T05:26:17;9.13;;;4.90;;
75716;SDS011;64333;50.138;14.332;2023-12-20T05:28:42;6.47;;;4.30;;
75716;SDS011;64333;50.138;14.332;2023-12-20T05:31:08;6.67;;;3.50;;
75716;SDS011;64333;50.138;14.332;2023-12-20T05:33:34;8.18;;;4.40;;
75716;SDS011;64333;50.138;14.332;2023-12-20T05:35:59;9.25;;;4.72;;
75716;SDS011;64333;50.138;14.332;2023-12-20T05:38:24;9.17;;;5.00;;
75716;SDS011;64333;50.138;14.332;2023-12-20T05:40:49;8.03;;;4.83;;
75716;SDS011;64333;50.138;14.332;2023-12-20T05:43:15;9.10;;;4.33;;
75716;SDS011;64333;50.138;14.332;2023-12-20T05:45:40;7.40;;;4.07;;
75716;SDS011;64333;50.138;14.332;2023-12-20T05:48:05;6.90;;;4.00;;
75716;SDS011;64333;50.138;14.332;2023-12-20T05:50:30;7.50;;;3.83;;
75716;SDS011;64333;50.138;14.332;2023-12-20T05:52:56;7.77;;;3.40;;
75716;SDS011;64333;50.138;14.332;2023-12-20T05:55:21;5.97;;;3.43;;
75716;SDS011;64333;50.138;14.332;2023-12-20T05:57:47;6.78;;;3.83;;
75716;SDS011;64333;50.138;14.332;2023-12-20T06:00:13;6.82;;;3.60;;
75716;SDS011;64333;50.138;14.332;2023-12-20T06:02:38;6.88;;;3.65;;
75716;SDS011;64333;50.138;14.332;2023-12-20T06:05:04;6.60;;;3.77;;
75716;SDS011;64333;50.138;14.332;2023-12-20T06:07:30;6.93;;;3.47;;
75716;SDS011;64333;50.138;14.332;2023-12-20T06:09:55;8.27;;;3.90;;
75716;SDS011;64333;50.138;14.332;2023-12-20T06:12:20;4.78;;;2.97;;
75716;SDS011;64333;50.138;14.332;2023-12-20T06:14:46;7.55;;;3.72;;
75716;SDS011;64333;50.138;14.332;2023-12-20T06:17:11;5.18;;;2.95;;
75716;SDS011;64333;50.138;14.332;2023-12-20T06:19:36;5.50;;;3.65;;
75716;SDS011;64333;50.138;14.332;2023-12-20T06:22:02;5.53;;;3.28;;
75716;SDS011;64333;50.138;14.332;2023-12-20T06:24:27;6.85;;;3.63;;
75716;SDS011;64333;50.138;14.332;2023-12-20T06:26:53;6.10;;;3.60;;
75716;SDS011;64333;50.138;14.332;2023-12-20T06:29:18;5.20;;;3.45;;
75716;SDS011;64333;50.138;14.332;2023-12-20T06:31:43;7.27;;;3.70;;
75716;SDS011;64333;50.138;14.332;2023-12-20T06:34:09;5.97;;;4.00;;
75716;SDS011;64333;50.138;14.332;2023-12-20T06:36:34;5.53;;;3.38;;
75716;SDS011;64333;50.138;14.332;2023-12-20T06:39:00;5.25;;;3.00;;
75716;SDS011;64333;50.138;14.332;2023-12-20T06:41:25;5.67;;;2.77;;
75716;SDS011;64333;50.138;14.332;2023-12-20T06:43:50;4.30;;;2.97;;
75716;SDS011;64333;50.138;14.332;2023-12-20T06:46:17;6.00;;;2.83;;
75716;SDS011;64333;50.138;14.332;2023-12-20T06:48:42;4.28;;;2.90;;
75716;SDS011;64333;50.138;14.332;2023-12-20T06:51:10;5.17;;;3.20;;
75716;SDS011;64333;50.138;14.332;2023-12-20T06:53:36;3.97;;;2.65;;
75716;SDS011;64333;50.138;14.332;2023-12-20T06:56:01;4.40;;;2.60;;
75716;SDS011;64333;50.138;14.332;2023-12-20T06:58:26;3.23;;;2.47;;
75716;SDS011;64333;50.138;14.332;2023-12-20T07:00:51;4.83;;;2.30;;
75716;SDS011;64333;50.138;14.332;2023-12-20T07:03:17;3.70;;;2.93;;
75716;SDS011;64333;50.138;14.332;2023-12-20T07:05:42;4.63;;;2.70;;
75716;SDS011;64333;50.138;14.332;2023-12-20T07:08:07;4.00;;;2.57;;
75716;SDS011;64333;50.138;14.332;2023-12-20T07:10:32;5.20;;;2.17;;
75716;SDS011;64333;50.138;14.332;2023-12-20T07:12:58;4.43;;;2.10;;
75716;SDS011;64333;50.138;14.332;2023-12-20T07:15:23;3.30;;;1.40;;
75716;SDS011;64333;50.138;14.332;2023-12-20T07:17:48;2.63;;;1.42;;
75716;SDS011;64333;50.138;14.332;2023-12-20T07:20:14;2.80;;;1.75;;
75716;SDS011;64333;50.138;14.332;2023-12-20T07:22:39;4.83;;;2.00;;
75716;SDS011;64333;50.138;14.332;2023-12-20T07:25:04;3.60;;;1.80;;
75716;SDS011;64333;50.138;14.332;2023-12-20T07:27:30;2.88;;;1.50;;
75716;SDS011;64333;50.138;14.332;2023-12-20T07:29:55;2.00;;;1.20;;
75716;SDS011;64333;50.138;14.332;2023-12-20T07:32:20;2.13;;;1.47;;
75716;SDS011;64333;50.138;14.332;2023-12-20T07:34:45;3.17;;;1.90;;
75716;SDS011;64333;50.138;14.332;2023-12-20T07:37:10;2.53;;;1.57;;
75716;SDS011;64333;50.138;14.332;2023-12-20T07:39:37;2.33;;;1.30;;
75716;SDS011;64333;50.138;14.332;2023-12-20T07:42:02;2.63;;;1.42;;
75716;SDS011;64333;50.138;14.332;2023-12-20T07:44:27;2.00;;;1.35;;
75716;SDS011;64333;50.138;14.332;2023-12-20T07:46:53;1.40;;;0.93;;
75716;SDS011;64333;50.138;14.332;2023-12-20T07:49:18;2.45;;;1.75;;
75716;SDS011;64333;50.138;14.332;2023-12-20T07:51:44;1.88;;;1.00;;
75716;SDS011;64333;50.138;14.332;2023-12-20T07:54:09;1.50;;;0.97;;
75716;SDS011;64333;50.138;14.332;2023-12-20T07:56:34;1.60;;;1.33;;
75716;SDS011;64333;50.138;14.332;2023-12-20T07:58:59;1.30;;;1.08;;
75716;SDS011;64333;50.138;14.332;2023-12-20T08:01:25;1.83;;;1.07;;
75716;SDS011;64333;50.138;14.332;2023-12-20T08:03:50;2.07;;;1.27;;
75716;SDS011;64333;50.138;14.332;2023-12-20T08:06:15;2.53;;;1.33;;
75716;SDS011;64333;50.138;14.332;2023-12-20T08:08:42;1.95;;;1.02;;
75716;SDS011;64333;50.138;14.332;2023-12-20T08:11:07;2.65;;;1.25;;
75716;SDS011;64333;50.138;14.332;2023-12-20T08:13:32;2.30;;;1.73;;
75716;SDS011;64333;50.138;14.332;2023-12-20T08:15:57;4.07;;;1.80;;
75716;SDS011;64333;50.138;14.332;2023-12-20T08:18:23;2.78;;;1.58;;
75716;SDS011;64333;50.138;14.332;2023-12-20T08:20:48;3.83;;;1.53;;
75716;SDS011;64333;50.138;14.332;2023-12-20T08:23:13;3.15;;;1.80;;
75716;SDS011;64333;50.138;14.332;2023-12-20T08:25:38;1.80;;;1.40;;
75716;SDS011;64333;50.138;14.332;2023-12-20T08:28:04;1.73;;;1.13;;
75716;SDS011;64333;50.138;14.332;2023-12-20T08:30:29;1.83;;;1.27;;
75716;SDS011;64333;50.138;14.332;2023-12-20T08:32:56;1.35;;;1.00;;
75716;SDS011;64333;50.138;14.332;2023-12-20T08:35:21;2.47;;;1.38;;
75716;SDS011;64333;50.138;14.332;2023-12-20T08:37:46;1.90;;;1.00;;
75716;SDS011;64333;50.138;14.332;2023-12-20T08:40:12;1.60;;;1.10;;
75716;SDS011;64333;50.138;14.332;2023-12-20T08:42:37;1.90;;;0.93;;
75716;SDS011;64333;50.138;14.332;2023-12-20T08:45:02;1.17;;;1.00;;
75716;SDS011;64333;50.138;14.332;2023-12-20T08:47:29;1.17;;;0.98;;
75716;SDS011;64333;50.138;14.332;2023-12-20T08:49:54;1.25;;;0.70;;
75716;SDS011;64333;50.138;14.332;2023-12-20T08:52:22;1.50;;;0.80;;
75716;SDS011;64333;50.138;14.332;2023-12-20T08:54:47;1.13;;;1.02;;
75716;SDS011;64333;50.138;14.332;2023-12-20T08:57:12;1.73;;;0.90;;
75716;SDS011;64333;50.138;14.332;2023-12-20T08:59:38;1.83;;;1.20;;
75716;SDS011;64333;50.138;14.332;2023-12-20T09:02:03;1.50;;;0.90;;
75716;SDS011;64333;50.138;14.332;2023-12-20T09:04:28;3.00;;;1.70;;
75716;SDS011;64333;50.138;14.332;2023-12-20T09:06:54;1.40;;;0.90;;
75716;SDS011;64333;50.138;14.332;2023-12-20T09:09:19;1.48;;;1.13;;
75716;SDS011;64333;50.138;14.332;2023-12-20T09:11:44;1.40;;;1.07;;
75716;SDS011;64333;50.138;14.332;2023-12-20T09:14:12;1.60;;;1.00;;
75716;SDS011;64333;50.138;14.332;2023-12-20T09:16:37;1.43;;;1.00;;
75716;SDS011;64333;50.138;14.332;2023-12-20T09:19:02;1.47;;;1.20;;
75716;SDS011;64333;50.138;14.332;2023-12-20T09:21:27;1.70;;;0.90;;
75716;SDS011;64333;50.138;14.332;2023-12-20T09:23:53;1.47;;;0.90;;
75716;SDS011;64333;50.138;14.332;2023-12-20T09:26:18;2.07;;;0.80;;
75716;SDS011;64333;50.138;14.332;2023-12-20T09:28:43;1.03;;;0.60;;
75716;SDS011;64333;50.138;14.332;2023-12-20T09:31:08;1.10;;;0.47;;
75716;SDS011;64333;50.138;14.332;2023-12-20T09:33:34;0.90;;;0.50;;
75716;SDS011;64333;50.138;14.332;2023-12-20T09:35:59;1.33;;;0.50;;
75716;SDS011;64333;50.138;14.332;2023-12-20T09:38:24;0.80;;;0.60;;
75716;SDS011;64333;50.138;14.332;2023-12-20T09:40:49;0.97;;;0.70;;
75716;SDS011;64333;50.138;14.332;2023-12-20T09:43:15;0.82;;;0.65;;
75716;SDS011;64333;50.138;14.332;2023-12-20T09:45:45;0.85;;;0.60;;
75716;SDS011;64333;50.138;14.332;2023-12-20T09:48:11;1.52;;;0.60;;
75716;SDS011;64333;50.138;14.332;2023-12-20T09:50:37;1.02;;;0.60;;
75716;SDS011;64333;50.138;14.332;2023-12-20T09:53:02;0.98;;;0.80;;
75716;SDS011;64333;50.138;14.332;2023-12-20T09:55:29;0.65;;;0.52;;
75716;SDS011;64333;50.138;14.332;2023-12-20T09:57:55;0.73;;;0.40;;
75716;SDS011;64333;50.138;14.332;2023-12-20T10:00:20;1.03;;;0.70;;
75716;SDS011;64333;50.138;14.332;2023-12-20T10:03:04;0.50;;;0.40;;
75716;SDS011;64333;50.138;14.332;2023-12-20T10:05:31;1.27;;;0.63;;
75716;SDS011;64333;50.138;14.332;2023-12-20T10:07:57;1.23;;;0.60;;
75716;SDS011;64333;50.138;14.332;2023-12-20T10:10:23;0.95;;;0.70;;
75716;SDS011;64333;50.138;14.332;2023-12-20T10:13:01;0.98;;;0.55;;
75716;SDS011;64333;50.138;14.332;2023-12-20T10:15:26;0.70;;;0.50;;
75716;SDS011;64333;50.138;14.332;2023-12-20T10:17:52;0.60;;;0.43;;
75716;SDS011;64333;50.138;14.332;2023-12-20T10:20:17;0.70;;;0.57;;
75716;SDS011;64333;50.138;14.332;2023-12-20T10:22:42;0.93;;;0.50;;
75716;SDS011;64333;50.138;14.332;2023-12-20T10:25:07;1.00;;;0.63;;
75716;SDS011;64333;50.138;14.332;2023-12-20T10:27:33;1.02;;;0.57;;
75716;SDS011;64333;50.138;14.332;2023-12-20T10:29:58;0.70;;;0.60;;
75716;SDS011;64333;50.138;14.332;2023-12-20T10:32:25;0.50;;;0.50;;
75716;SDS011;64333;50.138;14.332;2023-12-20T10:34:51;0.60;;;0.55;;
75716;SDS011;64333;50.138;14.332;2023-12-20T10:37:17;1.48;;;0.65;;
75716;SDS011;64333;50.138;14.332;2023-12-20T10:39:42;1.20;;;0.77;;
75716;SDS011;64333;50.138;14.332;2023-12-20T10:42:08;1.30;;;0.60;;
75716;SDS011;64333;50.138;14.332;2023-12-20T10:44:34;1.33;;;0.90;;
75716;SDS011;64333;50.138;14.332;2023-12-20T10:46:59;0.83;;;0.60;;
75716;SDS011;64333;50.138;14.332;2023-12-20T10:49:25;0.73;;;0.63;;
75716;SDS011;64333;50.138;14.332;2023-12-20T10:51:51;1.27;;;0.77;;
75716;SDS011;64333;50.138;14.332;2023-12-20T10:54:17;0.60;;;0.60;;
75716;SDS011;64333;50.138;14.332;2023-12-20T10:56:43;0.77;;;0.60;;
75716;SDS011;64333;50.138;14.332;2023-12-20T10:59:08;1.85;;;0.50;;
75716;SDS011;64333;50.138;14.332;2023-12-20T11:01:35;1.17;;;0.57;;
75716;SDS011;64333;50.138;14.332;2023-12-20T11:04:03;0.50;;;0.38;;
75716;SDS011;64333;50.138;14.332;2023-12-20T11:09:23;1.00;;;0.68;;
75716;SDS011;64333;50.138;14.332;2023-12-20T11:14:15;0.50;;;0.50;;
75716;SDS011;64333;50.138;14.332;2023-12-20T11:16:42;1.02;;;0.70;;
75716;SDS011;64333;50.138;14.332;2023-12-20T11:19:07;0.75;;;0.70;;
75716;SDS011;64333;50.138;14.332;2023-12-20T11:21:32;0.80;;;0.60;;
75716;SDS011;64333;50.138;14.332;2023-12-20T11:23:58;1.00;;;0.67;;
75716;SDS011;64333;50.138;14.332;2023-12-20T11:26:27;1.05;;;0.80;;
75716;SDS011;64333;50.138;14.332;2023-12-20T11:31:40;1.83;;;0.95;;
75716;SDS011;64333;50.138;14.332;2023-12-20T11:34:15;1.10;;;0.75;;
75716;SDS011;64333;50.138;14.332;2023-12-20T11:36:42;1.27;;;0.70;;
75716;SDS011;64333;50.138;14.332;2023-12-20T11:39:07;1.10;;;0.77;;
75716;SDS011;64333;50.138;14.332;2023-12-20T11:41:35;1.05;;;0.80;;
75716;SDS011;64333;50.138;14.332;2023-12-20T11:44:01;1.83;;;0.95;;
75716;SDS011;64333;50.138;14.332;2023-12-20T11:46:28;1.58;;;1.00;;
75716;SDS011;64333;50.138;14.332;2023-12-20T11:48:54;2.33;;;1.00;;
75716;SDS011;64333;50.138;14.332;2023-12-20T11:51:19;1.10;;;1.00;;
75716;SDS011;64333;50.138;14.332;2023-12-20T11:53:44;1.60;;;1.00;;
75716;SDS011;64333;50.138;14.332;2023-12-20T11:56:10;1.33;;;0.90;;
75716;SDS011;64333;50.138;14.332;2023-12-20T11:58:35;2.47;;;1.00;;
75716;SDS011;64333;50.138;14.332;2023-12-20T12:01:01;2.65;;;1.17;;
75716;SDS011;64333;50.138;14.332;2023-12-20T12:03:29;1.40;;;0.90;;
75716;SDS011;64333;50.138;14.332;2023-12-20T12:05:55;1.45;;;0.80;;
75716;SDS011;64333;50.138;14.332;2023-12-20T12:08:20;1.57;;;1.13;;
75716;SDS011;64333;50.138;14.332;2023-12-20T12:10:45;1.77;;;1.00;;
75716;SDS011;64333;50.138;14.332;2023-12-20T12:13:11;1.48;;;0.80;;
75716;SDS011;64333;50.138;14.332;2023-12-20T12:15:37;2.17;;;0.88;;
75716;SDS011;64333;50.138;14.332;2023-12-20T12:18:02;2.28;;;1.40;;
75716;SDS011;64333;50.138;14.332;2023-12-20T12:20:28;1.27;;;0.98;;
75716;SDS011;64333;50.138;14.332;2023-12-20T12:23:12;1.83;;;1.02;;
75716;SDS011;64333;50.138;14.332;2023-12-20T12:25:37;3.33;;;1.00;;
75716;SDS011;64333;50.138;14.332;2023-12-20T12:28:02;1.60;;;0.80;;
75716;SDS011;64333;50.138;14.332;2023-12-20T12:30:27;1.10;;;1.00;;
75716;SDS011;64333;50.138;14.332;2023-12-20T12:32:53;1.20;;;1.00;;
75716;SDS011;64333;50.138;14.332;2023-12-20T12:35:19;1.35;;;0.88;;
75716;SDS011;64333;50.138;14.332;2023-12-20T12:37:44;2.80;;;0.93;;
75716;SDS011;64333;50.138;14.332;2023-12-20T12:40:10;1.25;;;0.80;;
75716;SDS011;64333;50.138;14.332;2023-12-20T12:42:36;1.75;;;1.05;;
75716;SDS011;64333;50.138;14.332;2023-12-20T12:45:02;1.85;;;1.25;;
75716;SDS011;64333;50.138;14.332;2023-12-20T12:47:27;2.03;;;1.30;;
75716;SDS011;64333;50.138;14.332;2023-12-20T12:49:52;1.80;;;1.08;;
75716;SDS011;64333;50.138;14.332;2023-12-20T12:52:18;1.10;;;1.00;;
75716;SDS011;64333;50.138;14.332;2023-12-20T12:54:43;1.98;;;1.13;;
75716;SDS011;64333;50.138;14.332;2023-12-20T12:57:10;3.20;;;1.50;;
75716;SDS011;64333;50.138;14.332;2023-12-20T12:59:35;2.05;;;0.80;;
75716;SDS011;64333;50.138;14.332;2023-12-20T13:02:00;1.27;;;0.87;;
75716;SDS011;64333;50.138;14.332;2023-12-20T13:04:25;2.13;;;0.70;;
75716;SDS011;64333;50.138;14.332;2023-12-20T13:06:51;1.30;;;0.80;;
75716;SDS011;64333;50.138;14.332;2023-12-20T13:09:16;1.90;;;1.10;;
75716;SDS011;64333;50.138;14.332;2023-12-20T13:11:41;2.50;;;1.10;;
75716;SDS011;64333;50.138;14.332;2023-12-20T13:14:07;1.40;;;1.30;;
75716;SDS011;64333;50.138;14.332;2023-12-20T13:16:35;1.83;;;0.73;;
75716;SDS011;64333;50.138;14.332;2023-12-20T13:19:00;0.87;;;0.77;;
75716;SDS011;64333;50.138;14.332;2023-12-20T13:21:26;1.20;;;0.90;;
75716;SDS011;64333;50.138;14.332;2023-12-20T13:23:51;1.00;;;0.60;;
75716;SDS011;64333;50.138;14.332;2023-12-20T13:26:17;2.03;;;0.80;;
75716;SDS011;64333;50.138;14.332;2023-12-20T13:28:42;2.05;;;0.70;;
75716;SDS011;64333;50.138;14.332;2023-12-20T13:31:07;1.70;;;0.90;;
75716;SDS011;64333;50.138;14.332;2023-12-20T13:33:33;2.00;;;0.80;;
75716;SDS011;64333;50.138;14.332;2023-12-20T13:35:58;1.45;;;0.73;;
75716;SDS011;64333;50.138;14.332;2023-12-20T13:38:24;0.80;;;0.47;;
75716;SDS011;64333;50.138;14.332;2023-12-20T13:40:50;1.15;;;0.57;;
75716;SDS011;64333;50.138;14.332;2023-12-20T13:43:15;1.00;;;0.80;;
75716;SDS011;64333;50.138;14.332;2023-12-20T13:45:45;1.20;;;0.68;;
75716;SDS011;64333;50.138;14.332;2023-12-20T13:48:10;1.53;;;0.93;;
75716;SDS011;64333;50.138;14.332;2023-12-20T13:50:36;0.97;;;0.83;;
75716;SDS011;64333;50.138;14.332;2023-12-20T13:53:01;2.10;;;0.98;;
75716;SDS011;64333;50.138;14.332;2023-12-20T13:55:29;1.00;;;0.60;;
75716;SDS011;64333;50.138;14.332;2023-12-20T13:57:55;1.40;;;0.65;;
75716;SDS011;64333;50.138;14.332;2023-12-20T14:00:21;2.10;;;1.13;;
75716;SDS011;64333;50.138;14.332;2023-12-20T14:02:46;1.73;;;0.90;;
75716;SDS011;64333;50.138;14.332;2023-12-20T14:05:12;1.17;;;0.65;;
75716;SDS011;64333;50.138;14.332;2023-12-20T14:07:39;1.27;;;0.80;;
75716;SDS011;64333;50.138;14.332;2023-12-20T14:10:04;1.60;;;0.73;;
75716;SDS011;64333;50.138;14.332;2023-12-20T14:12:30;2.30;;;0.88;;
75716;SDS011;64333;50.138;14.332;2023-12-20T14:14:57;1.50;;;1.20;;
75716;SDS011;64333;50.138;14.332;2023-12-20T14:17:22;2.13;;;1.00;;
75716;SDS011;64333;50.138;14.332;2023-12-20T14:19:48;1.40;;;0.83;;
75716;SDS011;64333;50.138;14.332;2023-12-20T14:22:13;1.23;;;0.68;;
75716;SDS011;64333;50.138;14.332;2023-12-20T14:24:41;0.93;;;0.60;;
75716;SDS011;64333;50.138;14.332;2023-12-20T14:27:07;0.60;;;0.50;;
75716;SDS011;64333;50.138;14.332;2023-12-20T14:29:32;2.13;;;1.10;;
75716;SDS011;64333;50.138;14.332;2023-12-20T14:31:57;1.43;;;0.90;;